sensor_id;sensor_type;location;lat;lon;timestamp;temperature;humidity
20319;DHT22;10317;47.254;11.314;2023-02-23T00:01:53;2.40;99.90
20319;DHT22;10317;47.254;11.314;2023-02-23T00:04:23;2.30;99.90
20319;DHT22;10317;47.254;11.314;2023-02-23T00:06:49;2.30;99.90
20319;DHT22;10317;47.254;11.314;2023-02-23T00:09:18;2.30;99.90
20319;DHT22;10317;47.254;11.314;2023-02-23T00:11:55;2.30;99.90
20319;DHT22;10317;47.254;11.314;2023-02-23T00:14:24;2.30;99.90
20319;DHT22;10317;47.254;11.314;2023-02-23T00:16:52;2.30;99.90
20319;DHT22;10317;47.254;11.314;2023-02-23T00:19:18;2.30;99.90
20319;DHT22;10317;47.254;11.314;2023-02-23T00:21:44;2.30;99.90
20319;DHT22;10317;47.254;11.314;2023-02-23T00:24:12;2.30;99.90
20319;DHT22;10317;47.254;11.314;2023-02-23T00:26:43;2.30;99.90
20319;DHT22;10317;47.254;11.314;2023-02-23T00:29:14;2.30;99.90
20319;DHT22;10317;47.254;11.314;2023-02-23T00:31:45;2.30;99.90
20319;DHT22;10317;47.254;11.314;2023-02-23T00:34:13;2.30;99.90
20319;DHT22;10317;47.254;11.314;2023-02-23T00:36:39;2.20;99.90
20319;DHT22;10317;47.254;11.314;2023-02-23T00:39:07;2.30;99.90
20319;DHT22;10317;47.254;11.314;2023-02-23T00:41:46;2.30;99.90
20319;DHT22;10317;47.254;11.314;2023-02-23T00:44:12;2.20;99.90
20319;DHT22;10317;47.254;11.314;2023-02-23T00:46:42;2.20;99.90
20319;DHT22;10317;47.254;11.314;2023-02-23T00:49:09;2.10;99.90
20319;DHT22;10317;47.254;11.314;2023-02-23T00:51:35;2.10;99.90
20319;DHT22;10317;47.254;11.314;2023-02-23T00:54:02;2.10;99.90
20319;DHT22;10317;47.254;11.314;2023-02-23T00:56:28;2.10;99.90
20319;DHT22;10317;47.254;11.314;2023-02-23T00:58:54;2.20;99.90
20319;DHT22;10317;47.254;11.314;2023-02-23T01:01:22;2.20;99.90
20319;DHT22;10317;47.254;11.314;2023-02-23T01:03:48;2.20;99.90
20319;DHT22;10317;47.254;11.314;2023-02-23T01:06:15;2.20;99.90
20319;DHT22;10317;47.254;11.314;2023-02-23T01:08:44;2.20;99.90
20319;DHT22;10317;47.254;11.314;2023-02-23T01:11:15;2.20;99.90
20319;DHT22;10317;47.254;11.314;2023-02-23T01:13:43;2.20;99.90
20319;DHT22;10317;47.254;11.314;2023-02-23T01:16:13;2.20;99.90
20319;DHT22;10317;47.254;11.314;2023-02-23T01:18:41;2.20;99.90
20319;DHT22;10317;47.254;11.314;2023-02-23T01:23:43;2.20;99.90
20319;DHT22;10317;47.254;11.314;2023-02-23T01:28:41;2.30;99.90
20319;DHT22;10317;47.254;11.314;2023-02-23T01:31:08;2.30;99.90
20319;DHT22;10317;47.254;11.314;2023-02-23T01:33:33;2.30;99.90
20319;DHT22;10317;47.254;11.314;2023-02-23T01:35:59;2.30;99.90
20319;DHT22;10317;47.254;11.314;2023-02-23T01:38:25;2.20;99.90
20319;DHT22;10317;47.254;11.314;2023-02-23T01:40:51;2.20;99.90
20319;DHT22;10317;47.254;11.314;2023-02-23T01:43:20;2.20;99.90
20319;DHT22;10317;47.254;11.314;2023-02-23T01:45:52;2.20;99.90
20319;DHT22;10317;47.254;11.314;2023-02-23T01:48:27;2.20;99.90
20319;DHT22;10317;47.254;11.314;2023-02-23T01:50:58;2.20;99.90
20319;DHT22;10317;47.254;11.314;2023-02-23T01:53:27;2.20;99.90
20319;DHT22;10317;47.254;11.314;2023-02-23T01:56:02;2.20;99.90
20319;DHT22;10317;47.254;11.314;2023-02-23T01:58:29;2.10;99.90
20319;DHT22;10317;47.254;11.314;2023-02-23T02:00:58;2.10;99.90
20319;DHT22;10317;47.254;11.314;2023-02-23T02:03:34;2.10;99.90
20319;DHT22;10317;47.254;11.314;2023-02-23T02:06:02;2.10;99.90
20319;DHT22;10317;47.254;11.314;2023-02-23T02:08:32;2.00;99.90
20319;DHT22;10317;47.254;11.314;2023-02-23T02:10:59;2.00;99.90
20319;DHT22;10317;47.254;11.314;2023-02-23T02:13:30;1.90;99.90
20319;DHT22;10317;47.254;11.314;2023-02-23T02:41:02;1.30;99.90
20319;DHT22;10317;47.254;11.314;2023-02-23T02:46:03;1.30;99.90
20319;DHT22;10317;47.254;11.314;2023-02-23T02:51:24;1.20;99.90
20319;DHT22;10317;47.254;11.314;2023-02-23T02:54:01;1.20;99.90
20319;DHT22;10317;47.254;11.314;2023-02-23T02:56:36;1.10;99.90
20319;DHT22;10317;47.254;11.314;2023-02-23T02:59:12;1.10;99.90
20319;DHT22;10317;47.254;11.314;2023-02-23T03:01:57;1.10;99.90
20319;DHT22;10317;47.254;11.314;2023-02-23T03:04:41;1.10;99.90
20319;DHT22;10317;47.254;11.314;2023-02-23T03:07:42;1.10;99.90
20319;DHT22;10317;47.254;11.314;2023-02-23T03:10:46;1.00;99.90
20319;DHT22;10317;47.254;11.314;2023-02-23T03:17:22;1.00;99.90
20319;DHT22;10317;47.254;11.314;2023-02-23T03:20:41;1.00;99.90
20319;DHT22;10317;47.254;11.314;2023-02-23T03:23:29;1.00;99.90
20319;DHT22;10317;47.254;11.314;2023-02-23T03:32:34;0.90;99.90
20319;DHT22;10317;47.254;11.314;2023-02-23T03:35:26;0.90;99.90
20319;DHT22;10317;47.254;11.314;2023-02-23T03:38:36;0.80;99.90
20319;DHT22;10317;47.254;11.314;2023-02-23T03:41:22;0.80;99.90
20319;DHT22;10317;47.254;11.314;2023-02-23T03:44:15;0.80;99.90
20319;DHT22;10317;47.254;11.314;2023-02-23T03:47:02;0.70;99.90
20319;DHT22;10317;47.254;11.314;2023-02-23T03:49:49;0.70;99.90
20319;DHT22;10317;47.254;11.314;2023-02-23T03:52:42;0.70;99.90
20319;DHT22;10317;47.254;11.314;2023-02-23T03:55:31;0.60;99.90
20319;DHT22;10317;47.254;11.314;2023-02-23T03:58:22;0.60;99.90
20319;DHT22;10317;47.254;11.314;2023-02-23T04:01:08;0.60;99.90
20319;DHT22;10317;47.254;11.314;2023-02-23T04:03:55;0.60;99.90
20319;DHT22;10317;47.254;11.314;2023-02-23T04:06:44;0.60;99.90
20319;DHT22;10317;47.254;11.314;2023-02-23T04:09:30;0.60;99.90
20319;DHT22;10317;47.254;11.314;2023-02-23T04:12:43;0.60;99.90
20319;DHT22;10317;47.254;11.314;2023-02-23T04:15:32;0.70;99.90
20319;DHT22;10317;47.254;11.314;2023-02-23T04:17:58;0.60;99.90
20319;DHT22;10317;47.254;11.314;2023-02-23T04:20:24;0.60;99.90
20319;DHT22;10317;47.254;11.314;2023-02-23T04:22:50;0.60;99.90
20319;DHT22;10317;47.254;11.314;2023-02-23T04:25:17;0.70;99.90
20319;DHT22;10317;47.254;11.314;2023-02-23T04:27:43;0.60;99.90
20319;DHT22;10317;47.254;11.314;2023-02-23T04:30:09;0.60;99.90
20319;DHT22;10317;47.254;11.314;2023-02-23T04:32:36;0.70;99.90
20319;DHT22;10317;47.254;11.314;2023-02-23T04:35:02;0.70;99.90
20319;DHT22;10317;47.254;11.314;2023-02-23T04:37:27;0.60;99.90
20319;DHT22;10317;47.254;11.314;2023-02-23T04:39:53;0.70;99.90
20319;DHT22;10317;47.254;11.314;2023-02-23T04:42:19;0.70;99.90
20319;DHT22;10317;47.254;11.314;2023-02-23T04:44:45;0.80;99.90
20319;DHT22;10317;47.254;11.314;2023-02-23T04:47:13;0.80;99.90
20319;DHT22;10317;47.254;11.314;2023-02-23T04:49:40;0.80;99.90
20319;DHT22;10317;47.254;11.314;2023-02-23T04:52:05;0.80;99.90
20319;DHT22;10317;47.254;11.314;2023-02-23T04:54:31;0.80;99.90
20319;DHT22;10317;47.254;11.314;2023-02-23T04:56:57;0.90;99.90
20319;DHT22;10317;47.254;11.314;2023-02-23T04:59:23;0.90;99.90
20319;DHT22;10317;47.254;11.314;2023-02-23T05:01:48;0.90;99.90
20319;DHT22;10317;47.254;11.314;2023-02-23T05:04:14;0.90;99.90
20319;DHT22;10317;47.254;11.314;2023-02-23T05:06:39;0.90;99.90
20319;DHT22;10317;47.254;11.314;2023-02-23T05:09:07;0.90;99.90
20319;DHT22;10317;47.254;11.314;2023-02-23T05:11:32;1.00;99.90
20319;DHT22;10317;47.254;11.314;2023-02-23T05:13:58;1.00;99.90
20319;DHT22;10317;47.254;11.314;2023-02-23T05:16:24;1.00;99.90
20319;DHT22;10317;47.254;11.314;2023-02-23T05:18:50;1.00;99.90
20319;DHT22;10317;47.254;11.314;2023-02-23T05:21:16;1.00;99.90
20319;DHT22;10317;47.254;11.314;2023-02-23T05:23:42;1.00;99.90
20319;DHT22;10317;47.254;11.314;2023-02-23T05:26:10;1.00;99.90
20319;DHT22;10317;47.254;11.314;2023-02-23T05:28:37;1.00;99.90
20319;DHT22;10317;47.254;11.314;2023-02-23T05:31:04;1.00;99.90
20319;DHT22;10317;47.254;11.314;2023-02-23T05:33:31;1.00;99.90
20319;DHT22;10317;47.254;11.314;2023-02-23T05:35:57;1.00;99.90
20319;DHT22;10317;47.254;11.314;2023-02-23T05:38:24;1.00;99.90
20319;DHT22;10317;47.254;11.314;2023-02-23T05:40:49;1.00;99.90
20319;DHT22;10317;47.254;11.314;2023-02-23T05:43:15;1.00;99.90
20319;DHT22;10317;47.254;11.314;2023-02-23T05:45:41;1.00;99.90
20319;DHT22;10317;47.254;11.314;2023-02-23T05:48:08;0.90;99.90
20319;DHT22;10317;47.254;11.314;2023-02-23T05:50:35;0.90;99.90
20319;DHT22;10317;47.254;11.314;2023-02-23T05:53:01;0.90;99.90
20319;DHT22;10317;47.254;11.314;2023-02-23T05:55:26;1.00;99.90
20319;DHT22;10317;47.254;11.314;2023-02-23T05:57:52;0.90;99.90
20319;DHT22;10317;47.254;11.314;2023-02-23T06:00:18;0.80;99.90
20319;DHT22;10317;47.254;11.314;2023-02-23T06:02:44;0.80;99.90
20319;DHT22;10317;47.254;11.314;2023-02-23T06:05:11;0.80;99.90
20319;DHT22;10317;47.254;11.314;2023-02-23T06:07:38;0.80;99.90
20319;DHT22;10317;47.254;11.314;2023-02-23T06:10:04;0.80;99.90
20319;DHT22;10317;47.254;11.314;2023-02-23T06:12:30;0.80;99.90
20319;DHT22;10317;47.254;11.314;2023-02-23T06:14:55;0.90;99.90
20319;DHT22;10317;47.254;11.314;2023-02-23T06:17:22;0.90;99.90
20319;DHT22;10317;47.254;11.314;2023-02-23T06:19:47;0.90;99.90
20319;DHT22;10317;47.254;11.314;2023-02-23T06:22:14;0.90;99.90
20319;DHT22;10317;47.254;11.314;2023-02-23T06:24:42;1.00;99.90
20319;DHT22;10317;47.254;11.314;2023-02-23T06:27:08;1.00;99.90
20319;DHT22;10317;47.254;11.314;2023-02-23T06:29:34;1.00;99.90
20319;DHT22;10317;47.254;11.314;2023-02-23T06:32:02;1.00;99.90
20319;DHT22;10317;47.254;11.314;2023-02-23T06:34:27;1.10;99.90
20319;DHT22;10317;47.254;11.314;2023-02-23T06:36:53;1.10;99.90
20319;DHT22;10317;47.254;11.314;2023-02-23T06:39:19;1.10;99.90
20319;DHT22;10317;47.254;11.314;2023-02-23T06:41:45;1.20;99.90
20319;DHT22;10317;47.254;11.314;2023-02-23T06:44:10;1.30;99.90
20319;DHT22;10317;47.254;11.314;2023-02-23T06:46:55;1.30;99.90
20319;DHT22;10317;47.254;11.314;2023-02-23T06:49:20;1.40;99.90
20319;DHT22;10317;47.254;11.314;2023-02-23T06:51:46;1.50;99.90
20319;DHT22;10317;47.254;11.314;2023-02-23T06:54:12;1.50;99.90
20319;DHT22;10317;47.254;11.314;2023-02-23T06:56:37;1.50;99.90
20319;DHT22;10317;47.254;11.314;2023-02-23T06:59:03;1.60;99.90
20319;DHT22;10317;47.254;11.314;2023-02-23T07:01:29;1.60;99.90
20319;DHT22;10317;47.254;11.314;2023-02-23T07:03:55;1.70;99.90
20319;DHT22;10317;47.254;11.314;2023-02-23T07:06:21;1.70;99.90
20319;DHT22;10317;47.254;11.314;2023-02-23T07:08:46;1.80;99.90
20319;DHT22;10317;47.254;11.314;2023-02-23T07:11:13;1.80;99.90
20319;DHT22;10317;47.254;11.314;2023-02-23T07:13:40;1.90;99.90
20319;DHT22;10317;47.254;11.314;2023-02-23T07:16:07;2.00;99.90
20319;DHT22;10317;47.254;11.314;2023-02-23T07:18:33;2.10;99.90
20319;DHT22;10317;47.254;11.314;2023-02-23T07:20:59;2.10;99.90
20319;DHT22;10317;47.254;11.314;2023-02-23T07:23:24;2.20;99.90
20319;DHT22;10317;47.254;11.314;2023-02-23T07:25:51;2.30;99.90
20319;DHT22;10317;47.254;11.314;2023-02-23T07:28:17;2.40;99.90
20319;DHT22;10317;47.254;11.314;2023-02-23T07:30:44;2.60;99.90
20319;DHT22;10317;47.254;11.314;2023-02-23T07:33:09;2.70;99.90
20319;DHT22;10317;47.254;11.314;2023-02-23T07:35:35;2.80;99.90
20319;DHT22;10317;47.254;11.314;2023-02-23T07:38:01;2.90;99.90
20319;DHT22;10317;47.254;11.314;2023-02-23T07:40:27;3.10;99.90
20319;DHT22;10317;47.254;11.314;2023-02-23T07:42:52;3.20;99.90
20319;DHT22;10317;47.254;11.314;2023-02-23T07:45:19;3.40;99.90
20319;DHT22;10317;47.254;11.314;2023-02-23T07:47:45;3.60;99.90
20319;DHT22;10317;47.254;11.314;2023-02-23T07:50:13;3.70;99.90
20319;DHT22;10317;47.254;11.314;2023-02-23T07:52:40;3.80;99.90
20319;DHT22;10317;47.254;11.314;2023-02-23T07:55:07;4.00;99.90
20319;DHT22;10317;47.254;11.314;2023-02-23T07:57:33;4.20;99.90
20319;DHT22;10317;47.254;11.314;2023-02-23T07:59:59;4.40;99.90
20319;DHT22;10317;47.254;11.314;2023-02-23T08:02:25;4.50;99.90
20319;DHT22;10317;47.254;11.314;2023-02-23T08:04:53;4.60;99.90
20319;DHT22;10317;47.254;11.314;2023-02-23T08:07:20;4.80;99.90
20319;DHT22;10317;47.254;11.314;2023-02-23T08:09:46;5.00;99.90
20319;DHT22;10317;47.254;11.314;2023-02-23T08:12:12;5.20;99.90
20319;DHT22;10317;47.254;11.314;2023-02-23T08:14:40;5.50;99.90
20319;DHT22;10317;47.254;11.314;2023-02-23T08:17:05;5.70;99.90
20319;DHT22;10317;47.254;11.314;2023-02-23T08:19:38;5.90;99.90
20319;DHT22;10317;47.254;11.314;2023-02-23T08:22:04;6.10;99.90
20319;DHT22;10317;47.254;11.314;2023-02-23T08:24:30;6.40;99.90
20319;DHT22;10317;47.254;11.314;2023-02-23T08:26:57;6.60;99.90
20319;DHT22;10317;47.254;11.314;2023-02-23T08:29:23;6.70;99.90
20319;DHT22;10317;47.254;11.314;2023-02-23T08:31:49;6.80;99.90
20319;DHT22;10317;47.254;11.314;2023-02-23T08:34:21;6.80;99.90
20319;DHT22;10317;47.254;11.314;2023-02-23T08:36:48;6.80;99.90
20319;DHT22;10317;47.254;11.314;2023-02-23T08:39:14;6.80;99.90
20319;DHT22;10317;47.254;11.314;2023-02-23T08:41:40;6.80;99.90
20319;DHT22;10317;47.254;11.314;2023-02-23T08:44:06;6.80;99.90
20319;DHT22;10317;47.254;11.314;2023-02-23T08:46:32;6.80;99.90
20319;DHT22;10317;47.254;11.314;2023-02-23T08:48:58;6.80;99.90
20319;DHT22;10317;47.254;11.314;2023-02-23T08:51:25;6.90;99.90
20319;DHT22;10317;47.254;11.314;2023-02-23T08:53:51;6.80;99.90
20319;DHT22;10317;47.254;11.314;2023-02-23T08:56:17;7.00;99.80
20319;DHT22;10317;47.254;11.314;2023-02-23T08:58:43;7.10;99.70
20319;DHT22;10317;47.254;11.314;2023-02-23T09:01:18;7.10;99.10
20319;DHT22;10317;47.254;11.314;2023-02-23T09:03:44;7.20;98.50
20319;DHT22;10317;47.254;11.314;2023-02-23T09:06:16;7.30;98.40
20319;DHT22;10317;47.254;11.314;2023-02-23T09:08:42;7.30;98.10
20319;DHT22;10317;47.254;11.314;2023-02-23T09:11:08;7.30;98.00
20319;DHT22;10317;47.254;11.314;2023-02-23T09:13:34;7.40;97.90
20319;DHT22;10317;47.254;11.314;2023-02-23T09:16:00;7.40;97.90
20319;DHT22;10317;47.254;11.314;2023-02-23T09:18:35;7.50;97.90
20319;DHT22;10317;47.254;11.314;2023-02-23T09:21:15;7.60;97.70
20319;DHT22;10317;47.254;11.314;2023-02-23T09:23:45;7.60;97.50
20319;DHT22;10317;47.254;11.314;2023-02-23T09:26:13;7.60;97.50
20319;DHT22;10317;47.254;11.314;2023-02-23T09:28:44;7.70;97.20
20319;DHT22;10317;47.254;11.314;2023-02-23T09:31:12;7.70;96.60
20319;DHT22;10317;47.254;11.314;2023-02-23T09:33:39;7.70;96.00
20319;DHT22;10317;47.254;11.314;2023-02-23T09:36:25;7.80;96.40
20319;DHT22;10317;47.254;11.314;2023-02-23T09:38:52;7.90;96.00
20319;DHT22;10317;47.254;11.314;2023-02-23T09:44:02;8.00;95.80
20319;DHT22;10317;47.254;11.314;2023-02-23T09:46:50;8.10;95.40
20319;DHT22;10317;47.254;11.314;2023-02-23T09:49:23;8.20;95.30
20319;DHT22;10317;47.254;11.314;2023-02-23T09:51:53;8.30;95.00
20319;DHT22;10317;47.254;11.314;2023-02-23T09:54:24;8.30;94.00
20319;DHT22;10317;47.254;11.314;2023-02-23T09:57:04;8.40;94.20
20319;DHT22;10317;47.254;11.314;2023-02-23T09:59:33;8.50;93.80
20319;DHT22;10317;47.254;11.314;2023-02-23T10:02:32;8.60;93.80
20319;DHT22;10317;47.254;11.314;2023-02-23T10:05:09;8.70;92.80
20319;DHT22;10317;47.254;11.314;2023-02-23T10:16:06;9.30;92.20
20319;DHT22;10317;47.254;11.314;2023-02-23T10:18:51;9.50;90.60
20319;DHT22;10317;47.254;11.314;2023-02-23T10:21:46;9.70;90.20
20319;DHT22;10317;47.254;11.314;2023-02-23T10:24:35;9.80;89.70
20319;DHT22;10317;47.254;11.314;2023-02-23T10:27:15;10.00;89.20
20319;DHT22;10317;47.254;11.314;2023-02-23T10:29:48;10.20;88.80
20319;DHT22;10317;47.254;11.314;2023-02-23T10:32:31;10.30;86.30
20319;DHT22;10317;47.254;11.314;2023-02-23T10:34:59;10.40;85.10
20319;DHT22;10317;47.254;11.314;2023-02-23T10:37:26;10.60;85.40
20319;DHT22;10317;47.254;11.314;2023-02-23T10:39:51;10.70;84.50
20319;DHT22;10317;47.254;11.314;2023-02-23T10:42:26;10.80;83.20
20319;DHT22;10317;47.254;11.314;2023-02-23T10:44:57;10.90;81.70
20319;DHT22;10317;47.254;11.314;2023-02-23T10:47:31;11.00;81.20
20319;DHT22;10317;47.254;11.314;2023-02-23T10:49:59;11.00;79.80
20319;DHT22;10317;47.254;11.314;2023-02-23T10:53:18;11.20;79.70
20319;DHT22;10317;47.254;11.314;2023-02-23T10:55:44;11.40;79.70
20319;DHT22;10317;47.254;11.314;2023-02-23T10:58:13;11.50;77.60
20319;DHT22;10317;47.254;11.314;2023-02-23T11:00:57;11.60;76.80
20319;DHT22;10317;47.254;11.314;2023-02-23T11:03:34;11.60;76.20
20319;DHT22;10317;47.254;11.314;2023-02-23T11:06:01;11.70;75.90
20319;DHT22;10317;47.254;11.314;2023-02-23T11:08:37;11.70;73.80
20319;DHT22;10317;47.254;11.314;2023-02-23T11:13:45;11.80;74.20
20319;DHT22;10317;47.254;11.314;2023-02-23T11:16:25;12.00;72.30
20319;DHT22;10317;47.254;11.314;2023-02-23T11:19:01;12.10;73.20
20319;DHT22;10317;47.254;11.314;2023-02-23T11:21:38;12.20;73.10
20319;DHT22;10317;47.254;11.314;2023-02-23T11:26:43;12.30;71.50
20319;DHT22;10317;47.254;11.314;2023-02-23T11:29:19;12.40;69.30
20319;DHT22;10317;47.254;11.314;2023-02-23T11:31:49;12.40;69.40
20319;DHT22;10317;47.254;11.314;2023-02-23T11:34:28;12.30;69.20
20319;DHT22;10317;47.254;11.314;2023-02-23T11:37:06;12.30;68.90
20319;DHT22;10317;47.254;11.314;2023-02-23T11:39:33;12.50;68.90
20319;DHT22;10317;47.254;11.314;2023-02-23T11:42:29;12.50;68.30
20319;DHT22;10317;47.254;11.314;2023-02-23T11:45:10;12.60;68.40
20319;DHT22;10317;47.254;11.314;2023-02-23T11:47:43;12.70;66.50
20319;DHT22;10317;47.254;11.314;2023-02-23T11:53:00;12.60;65.90
20319;DHT22;10317;47.254;11.314;2023-02-23T11:55:29;12.60;66.10
20319;DHT22;10317;47.254;11.314;2023-02-23T12:00:57;12.60;63.80
20319;DHT22;10317;47.254;11.314;2023-02-23T12:03:28;12.60;62.90
20319;DHT22;10317;47.254;11.314;2023-02-23T12:05:56;12.60;63.90
20319;DHT22;10317;47.254;11.314;2023-02-23T12:08:46;12.60;63.70
20319;DHT22;10317;47.254;11.314;2023-02-23T12:11:21;12.30;61.90
20319;DHT22;10317;47.254;11.314;2023-02-23T12:13:56;12.20;63.80
20319;DHT22;10317;47.254;11.314;2023-02-23T12:16:31;12.20;63.30
20319;DHT22;10317;47.254;11.314;2023-02-23T12:27:28;11.90;63.10
20319;DHT22;10317;47.254;11.314;2023-02-23T12:30:30;11.60;65.10
20319;DHT22;10317;47.254;11.314;2023-02-23T12:33:05;11.80;66.40
20319;DHT22;10317;47.254;11.314;2023-02-23T12:35:53;11.90;65.10
20319;DHT22;10317;47.254;11.314;2023-02-23T12:41:10;12.00;65.70
20319;DHT22;10317;47.254;11.314;2023-02-23T12:43:43;12.10;64.70
20319;DHT22;10317;47.254;11.314;2023-02-23T12:46:28;12.10;65.80
20319;DHT22;10317;47.254;11.314;2023-02-23T12:52:02;12.20;64.90
20319;DHT22;10317;47.254;11.314;2023-02-23T12:54:33;12.30;66.00
20319;DHT22;10317;47.254;11.314;2023-02-23T12:59:41;12.30;65.40
20319;DHT22;10317;47.254;11.314;2023-02-23T13:05:18;12.20;65.20
20319;DHT22;10317;47.254;11.314;2023-02-23T13:08:18;12.20;66.40
20319;DHT22;10317;47.254;11.314;2023-02-23T13:11:04;11.90;65.00
20319;DHT22;10317;47.254;11.314;2023-02-23T13:16:37;11.90;66.80
20319;DHT22;10317;47.254;11.314;2023-02-23T13:19:23;12.00;66.70
20319;DHT22;10317;47.254;11.314;2023-02-23T13:21:57;12.10;66.10
20319;DHT22;10317;47.254;11.314;2023-02-23T13:24:31;12.00;65.80
20319;DHT22;10317;47.254;11.314;2023-02-23T13:29:39;11.90;67.30
20319;DHT22;10317;47.254;11.314;2023-02-23T13:32:27;11.90;67.10
20319;DHT22;10317;47.254;11.314;2023-02-23T13:34:58;11.90;67.90
20319;DHT22;10317;47.254;11.314;2023-02-23T13:40:23;11.90;67.30
20319;DHT22;10317;47.254;11.314;2023-02-23T13:50:59;11.80;68.60
20319;DHT22;10317;47.254;11.314;2023-02-23T13:56:01;11.80;71.00
20319;DHT22;10317;47.254;11.314;2023-02-23T13:58:29;11.80;71.20
20319;DHT22;10317;47.254;11.314;2023-02-23T14:01:15;11.80;70.80
20319;DHT22;10317;47.254;11.314;2023-02-23T14:03:46;11.80;70.40
20319;DHT22;10317;47.254;11.314;2023-02-23T14:06:19;11.70;70.20
20319;DHT22;10317;47.254;11.314;2023-02-23T14:08:54;11.70;70.30
20319;DHT22;10317;47.254;11.314;2023-02-23T14:11:48;11.80;69.70
20319;DHT22;10317;47.254;11.314;2023-02-23T14:17:40;11.70;70.50
20319;DHT22;10317;47.254;11.314;2023-02-23T14:20:15;11.70;70.40
20319;DHT22;10317;47.254;11.314;2023-02-23T14:28:47;11.70;70.60
20319;DHT22;10317;47.254;11.314;2023-02-23T14:31:33;11.70;70.80
20319;DHT22;10317;47.254;11.314;2023-02-23T14:34:06;11.60;71.20
20319;DHT22;10317;47.254;11.314;2023-02-23T14:36:42;11.60;71.50
20319;DHT22;10317;47.254;11.314;2023-02-23T14:39:24;11.60;71.50
20319;DHT22;10317;47.254;11.314;2023-02-23T14:41:59;11.40;71.70
20319;DHT22;10317;47.254;11.314;2023-02-23T14:44:35;11.40;72.40
20319;DHT22;10317;47.254;11.314;2023-02-23T14:47:12;11.40;72.70
20319;DHT22;10317;47.254;11.314;2023-02-23T14:50:03;11.40;73.50
20319;DHT22;10317;47.254;11.314;2023-02-23T14:52:34;11.30;73.70
20319;DHT22;10317;47.254;11.314;2023-02-23T14:55:28;11.30;73.50
20319;DHT22;10317;47.254;11.314;2023-02-23T14:57:54;11.20;74.70
20319;DHT22;10317;47.254;11.314;2023-02-23T15:00:28;11.20;74.70
20319;DHT22;10317;47.254;11.314;2023-02-23T15:03:22;11.20;75.00
20319;DHT22;10317;47.254;11.314;2023-02-23T15:06:05;11.10;75.00
20319;DHT22;10317;47.254;11.314;2023-02-23T15:08:43;11.10;76.00
20319;DHT22;10317;47.254;11.314;2023-02-23T15:11:13;11.00;75.90
20319;DHT22;10317;47.254;11.314;2023-02-23T15:13:41;11.00;76.20
20319;DHT22;10317;47.254;11.314;2023-02-23T15:16:26;11.00;76.60
20319;DHT22;10317;47.254;11.314;2023-02-23T15:18:52;10.90;76.20
20319;DHT22;10317;47.254;11.314;2023-02-23T15:21:22;10.90;76.50
20319;DHT22;10317;47.254;11.314;2023-02-23T15:23:52;10.90;77.00
20319;DHT22;10317;47.254;11.314;2023-02-23T15:26:32;10.90;77.10
20319;DHT22;10317;47.254;11.314;2023-02-23T15:31:38;10.80;77.80
20319;DHT22;10317;47.254;11.314;2023-02-23T15:34:09;10.70;79.30
20319;DHT22;10317;47.254;11.314;2023-02-23T15:36:36;10.60;80.10
20319;DHT22;10317;47.254;11.314;2023-02-23T15:39:05;10.60;80.30
20319;DHT22;10317;47.254;11.314;2023-02-23T15:41:36;10.50;80.60
20319;DHT22;10317;47.254;11.314;2023-02-23T15:44:19;10.50;81.00
20319;DHT22;10317;47.254;11.314;2023-02-23T15:46:50;10.40;82.20
20319;DHT22;10317;47.254;11.314;2023-02-23T15:49:17;10.40;82.90
20319;DHT22;10317;47.254;11.314;2023-02-23T15:55:04;10.30;82.50
20319;DHT22;10317;47.254;11.314;2023-02-23T15:57:55;10.20;81.10
20319;DHT22;10317;47.254;11.314;2023-02-23T16:00:42;10.10;80.90
20319;DHT22;10317;47.254;11.314;2023-02-23T16:03:32;10.10;80.30
20319;DHT22;10317;47.254;11.314;2023-02-23T16:06:15;10.00;80.10
20319;DHT22;10317;47.254;11.314;2023-02-23T16:08:56;10.00;80.60
20319;DHT22;10317;47.254;11.314;2023-02-23T16:11:22;9.90;81.50
20319;DHT22;10317;47.254;11.314;2023-02-23T16:13:50;9.80;82.00
20319;DHT22;10317;47.254;11.314;2023-02-23T16:16:17;9.80;82.30
20319;DHT22;10317;47.254;11.314;2023-02-23T16:18:46;9.70;82.70
20319;DHT22;10317;47.254;11.314;2023-02-23T16:21:19;9.70;83.10
20319;DHT22;10317;47.254;11.314;2023-02-23T16:23:49;9.60;83.50
20319;DHT22;10317;47.254;11.314;2023-02-23T16:26:35;9.50;84.30
20319;DHT22;10317;47.254;11.314;2023-02-23T16:29:08;9.50;84.90
20319;DHT22;10317;47.254;11.314;2023-02-23T16:31:47;9.40;86.30
20319;DHT22;10317;47.254;11.314;2023-02-23T16:34:33;9.40;86.70
20319;DHT22;10317;47.254;11.314;2023-02-23T16:37:03;9.30;88.50
20319;DHT22;10317;47.254;11.314;2023-02-23T16:39:40;9.20;88.80
20319;DHT22;10317;47.254;11.314;2023-02-23T16:42:22;9.10;88.20
20319;DHT22;10317;47.254;11.314;2023-02-23T16:44:48;9.00;88.90
20319;DHT22;10317;47.254;11.314;2023-02-23T16:47:34;8.90;89.50
20319;DHT22;10317;47.254;11.314;2023-02-23T16:50:07;8.90;89.40
20319;DHT22;10317;47.254;11.314;2023-02-23T16:52:37;8.80;90.30
20319;DHT22;10317;47.254;11.314;2023-02-23T16:55:03;8.70;90.10
20319;DHT22;10317;47.254;11.314;2023-02-23T16:57:33;8.70;90.20
20319;DHT22;10317;47.254;11.314;2023-02-23T17:00:02;8.70;90.40
20319;DHT22;10317;47.254;11.314;2023-02-23T17:02:38;8.60;90.40
20319;DHT22;10317;47.254;11.314;2023-02-23T17:05:10;8.60;90.60
20319;DHT22;10317;47.254;11.314;2023-02-23T17:07:38;8.60;90.70
20319;DHT22;10317;47.254;11.314;2023-02-23T17:10:05;8.50;91.10
20319;DHT22;10317;47.254;11.314;2023-02-23T17:12:31;8.40;91.10
20319;DHT22;10317;47.254;11.314;2023-02-23T17:14:57;8.30;91.40
20319;DHT22;10317;47.254;11.314;2023-02-23T17:17:22;8.30;91.50
20319;DHT22;10317;47.254;11.314;2023-02-23T17:19:53;8.20;91.60
20319;DHT22;10317;47.254;11.314;2023-02-23T17:22:19;8.20;91.80
20319;DHT22;10317;47.254;11.314;2023-02-23T17:24:47;8.20;91.90
20319;DHT22;10317;47.254;11.314;2023-02-23T17:27:12;8.10;92.00
20319;DHT22;10317;47.254;11.314;2023-02-23T17:29:38;8.10;92.10
20319;DHT22;10317;47.254;11.314;2023-02-23T17:32:08;8.00;92.40
20319;DHT22;10317;47.254;11.314;2023-02-23T17:34:34;8.00;92.60
20319;DHT22;10317;47.254;11.314;2023-02-23T17:37:00;8.00;92.50
20319;DHT22;10317;47.254;11.314;2023-02-23T17:39:26;7.90;92.60
20319;DHT22;10317;47.254;11.314;2023-02-23T17:41:52;7.80;92.70
20319;DHT22;10317;47.254;11.314;2023-02-23T17:44:18;7.80;92.90
20319;DHT22;10317;47.254;11.314;2023-02-23T17:46:43;7.70;93.10
20319;DHT22;10317;47.254;11.314;2023-02-23T17:49:09;7.70;93.10
20319;DHT22;10317;47.254;11.314;2023-02-23T17:51:36;7.70;93.20
20319;DHT22;10317;47.254;11.314;2023-02-23T17:54:01;7.70;93.40
20319;DHT22;10317;47.254;11.314;2023-02-23T17:56:27;7.60;93.60
20319;DHT22;10317;47.254;11.314;2023-02-23T17:58:55;7.60;93.70
20319;DHT22;10317;47.254;11.314;2023-02-23T18:01:21;7.50;93.90